Time;durP1;ratioP1;P1;durP2;ratioP2;P2;SDS_P1;SDS_P2;PMS_P1;PMS_P2;Temp;Humidity;BMP_temperature;BMP_pressure;BME280_temperature;BME280_humidity;BME280_pressure;Samples;Min_cycle;Max_cycle;Signal;HPM_P1;HPM_P2
2022/09/18 00:01:11;;;;;;;16.98;5.43;;;9.00;99.90;;;;;;5031445;28;20041;-70
2022/09/18 00:03:39;;;;;;;19.33;5.65;;;9.10;99.90;;;;;;5014390;28;20560;-69
2022/09/18 00:06:18;;;;;;;18.05;5.28;;;9.10;99.90;;;;;;5014610;28;20049;-68
2022/09/18 00:08:45;;;;;;;14.85;5.13;;;9.10;99.90;;;;;;5014529;28;20517;-69
2022/09/18 00:11:14;;;;;;;13.60;4.80;;;9.00;99.90;;;;;;5033718;28;20140;-69
2022/09/18 00:13:42;;;;;;;12.45;4.60;;;9.10;99.90;;;;;;5013931;28;20041;-71
2022/09/18 00:16:11;;;;;;;12.35;5.32;;;9.10;99.90;;;;;;5033740;28;20063;-71
2022/09/18 00:18:39;;;;;;;13.68;5.15;;;9.20;99.90;;;;;;5014499;28;20789;-71
2022/09/18 00:21:14;;;;;;;16.73;5.22;;;9.10;99.90;;;;;;5030610;28;20072;-72
2022/09/18 00:23:41;;;;;;;;;;;9.10;99.90;;;;;;5035761;28;20116;-71
2022/09/18 00:26:09;;;;;;;20.33;5.13;;;9.20;99.90;;;;;;5035104;28;20359;-71
2022/09/18 00:28:36;;;;;;;19.17;4.80;;;9.20;99.90;;;;;;5019359;28;20033;-71
2022/09/18 00:31:12;;;;;;;12.35;4.50;;;9.20;99.90;;;;;;5017149;28;20533;-71
2022/09/18 00:33:40;;;;;;;11.57;4.75;;;9.20;99.90;;;;;;5018503;28;20044;-69
2022/09/18 00:36:09;;;;;;;12.60;4.55;;;9.20;99.90;;;;;;5017688;28;20049;-69
2022/09/18 00:38:36;;;;;;;10.20;4.10;;;9.20;99.90;;;;;;5036790;28;20330;-69
2022/09/18 00:41:06;;;;;;;11.35;4.07;;;9.20;99.90;;;;;;5000748;28;20043;-69
2022/09/18 00:43:35;;;;;;;8.27;4.10;;;9.20;99.90;;;;;;5019340;28;20511;-69
2022/09/18 00:46:06;;;;;;;18.42;4.90;;;9.20;99.90;;;;;;5016229;28;20289;-69
2022/09/18 00:48:50;;;;;;;12.20;4.25;;;9.20;99.90;;;;;;5018715;28;20053;-69
2022/09/18 00:51:18;;;;;;;11.25;4.60;;;9.20;99.90;;;;;;5015718;28;20475;-69
2022/09/18 00:53:51;;;;;;;16.05;5.30;;;9.30;99.90;;;;;;5033134;28;20045;-71
2022/09/18 00:56:18;;;;;;;10.70;5.18;;;9.20;99.90;;;;;;5016983;28;20041;-71
2022/09/18 00:58:45;;;;;;;14.88;4.60;;;9.20;99.90;;;;;;5016722;28;20040;-71
2022/09/18 01:01:12;;;;;;;18.17;5.10;;;9.30;99.90;;;;;;5017199;28;20474;-72
2022/09/18 01:03:39;;;;;;;10.88;5.55;;;9.30;99.90;;;;;;5001147;28;20079;-69
2022/09/18 01:06:12;;;;;;;9.02;4.68;;;9.30;99.90;;;;;;5035851;28;20155;-71
2022/09/18 01:08:59;;;;;;;16.15;5.45;;;9.20;99.90;;;;;;5018745;28;20049;-69
2022/09/18 01:11:55;;;;;;;14.70;6.32;;;9.20;99.90;;;;;;5017490;28;20041;-71
2022/09/18 01:14:26;;;;;;;14.38;4.70;;;9.10;99.90;;;;;;5032825;28;20090;-71
2022/09/18 01:17:14;;;;;;;11.98;4.65;;;9.10;99.90;;;;;;5016523;28;20064;-71
2022/09/18 01:20:26;;;;;;;16.20;5.97;;;9.20;99.90;;;;;;5016991;28;20091;-71
2022/09/18 01:23:11;;;;;;;9.70;4.15;;;9.10;99.90;;;;;;5014787;28;20132;-71
2022/09/18 01:25:58;;;;;;;;;;;9.20;99.90;;;;;;5018170;28;21189;-71
2022/09/18 01:28:40;;;;;;;7.95;4.82;;;9.10;99.90;;;;;;4998237;28;19921;-71
2022/09/18 01:31:53;;;;;;;12.45;5.25;;;9.10;99.90;;;;;;5015965;28;20078;-71
2022/09/18 01:34:23;;;;;;;16.08;5.43;;;9.10;99.90;;;;;;4935145;28;20606;-71
2022/09/18 01:37:27;;;;;;;11.38;4.93;;;9.10;99.90;;;;;;5006078;28;20040;-71
2022/09/18 01:40:18;;;;;;;9.77;4.63;;;9.10;99.90;;;;;;5013477;28;20045;-71
2022/09/18 01:42:48;;;;;;;13.75;5.95;;;9.00;99.90;;;;;;5023128;23;20036;-74
2022/09/18 01:45:23;;;;;;;12.13;6.10;;;9.00;99.90;;;;;;5020652;28;20041;-74
2022/09/18 01:47:55;;;;;;;14.82;5.78;;;9.10;99.90;;;;;;5019517;28;20033;-75
2022/09/18 01:50:29;;;;;;;13.10;5.72;;;9.00;99.90;;;;;;5018786;28;20511;-71
2022/09/18 01:53:07;;;;;;;19.73;6.07;;;9.00;99.90;;;;;;5044204;28;20411;-72
2022/09/18 01:55:37;;;;;;;18.77;6.95;;;9.00;99.90;;;;;;5045291;28;20521;-74
2022/09/18 01:58:12;;;;;;;13.02;6.30;;;9.00;99.90;;;;;;5028939;28;20665;-73
2022/09/18 02:00:49;;;;;;;16.33;6.93;;;9.00;99.90;;;;;;5033844;28;20702;-71
2022/09/18 02:03:39;;;;;;;18.05;6.32;;;9.00;99.90;;;;;;5034842;28;20041;-72
2022/09/18 02:06:38;;;;;;;16.75;6.28;;;9.00;99.90;;;;;;5034432;28;20068;-73
2022/09/18 02:09:09;;;;;;;16.67;6.35;;;9.10;99.90;;;;;;5018233;28;20080;-73
2022/09/18 02:11:43;;;;;;;14.73;5.68;;;9.10;99.90;;;;;;5027105;28;20041;-74
2022/09/18 02:14:17;;;;;;;15.77;5.53;;;9.10;99.90;;;;;;5028737;28;20441;-75
2022/09/18 02:17:01;;;;;;;17.50;5.82;;;9.10;99.90;;;;;;5046460;28;20067;-72
2022/09/18 02:19:36;;;;;;;17.20;6.38;;;9.10;99.90;;;;;;5025678;28;20566;-76
2022/09/18 02:22:08;;;;;;;17.80;6.32;;;9.10;99.90;;;;;;5033152;28;20075;-72
2022/09/18 02:24:38;;;;;;;14.25;6.65;;;9.20;99.90;;;;;;5052783;28;20503;-73
2022/09/18 02:27:08;;;;;;;23.42;7.05;;;9.10;99.90;;;;;;5034258;28;20044;-76
2022/09/18 02:29:35;;;;;;;16.27;7.90;;;9.20;99.90;;;;;;5051768;28;20040;-73
2022/09/18 02:32:02;;;;;;;25.30;7.43;;;9.10;99.90;;;;;;5044898;28;20040;-74
2022/09/18 02:34:30;;;;;;;16.52;7.43;;;9.10;99.90;;;;;;5033486;28;20058;-74
2022/09/18 02:37:15;;;;;;;18.13;7.80;;;9.20;99.90;;;;;;5049933;28;20057;-74
2022/09/18 02:39:57;;;;;;;15.07;8.40;;;9.30;99.90;;;;;;5036495;28;20040;-74
2022/09/18 02:42:46;;;;;;;18.73;8.85;;;9.20;99.90;;;;;;5029532;28;20083;-75
2022/09/18 02:45:27;;;;;;;19.20;8.52;;;9.20;99.90;;;;;;5052651;28;20041;-72
2022/09/18 02:48:27;;;;;;;21.50;9.98;;;9.20;99.90;;;;;;5032584;28;20442;-73
2022/09/18 02:51:00;;;;;;;21.08;9.30;;;9.20;99.90;;;;;;5043391;28;20090;-73
2022/09/18 02:53:29;;;;;;;20.50;10.00;;;9.20;99.90;;;;;;5032717;28;20524;-75
2022/09/18 02:56:05;;;;;;;24.75;11.38;;;9.20;99.90;;;;;;5030471;28;20073;-74
2022/09/18 02:58:43;;;;;;;19.70;10.27;;;9.10;99.90;;;;;;5033189;28;20548;-74
2022/09/18 03:01:11;;;;;;;20.77;10.65;;;9.10;99.90;;;;;;5025310;28;20053;-72
2022/09/18 03:03:39;;;;;;;17.58;10.77;;;9.20;99.90;;;;;;5029759;28;20120;-74
2022/09/18 03:06:08;;;;;;;19.67;10.35;;;9.20;99.90;;;;;;5030038;28;20036;-72
2022/09/18 03:08:36;;;;;;;19.10;9.27;;;9.20;99.90;;;;;;5042531;28;20036;-72
2022/09/18 03:11:04;;;;;;;20.52;9.95;;;9.20;99.90;;;;;;5054378;28;20044;-73
2022/09/18 03:13:32;;;;;;;14.88;9.63;;;9.20;99.90;;;;;;5058127;28;20055;-73
2022/09/18 03:15:59;;;;;;;20.50;9.90;;;9.20;99.90;;;;;;5053328;28;20046;-73
2022/09/18 03:18:26;;;;;;;20.30;9.63;;;9.20;99.90;;;;;;5076697;28;20068;-73
2022/09/18 03:20:54;;;;;;;18.90;10.30;;;9.20;99.90;;;;;;5050058;28;20087;-71
2022/09/18 03:23:22;;;;;;;20.08;10.07;;;9.20;99.90;;;;;;5053777;28;20064;-76
2022/09/18 03:25:52;;;;;;;21.27;11.20;;;9.20;99.90;;;;;;5054478;28;20033;-73
2022/09/18 03:28:19;;;;;;;22.08;10.63;;;9.20;99.90;;;;;;5042709;28;20055;-73
2022/09/18 03:30:45;;;;;;;17.40;9.82;;;9.30;99.90;;;;;;5076146;28;20040;-72
2022/09/18 03:33:14;;;;;;;21.77;11.02;;;9.30;99.90;;;;;;5054167;28;20047;-74
2022/09/18 03:35:42;;;;;;;23.63;10.52;;;9.30;99.90;;;;;;5056279;28;20032;-74
2022/09/18 03:38:09;;;;;;;33.92;12.93;;;9.30;99.90;;;;;;5040148;28;20062;-73
2022/09/18 03:40:36;;;;;;;20.77;11.13;;;9.30;99.90;;;;;;5055514;28;20075;-74
2022/09/18 03:43:04;;;;;;;14.68;9.93;;;9.20;99.90;;;;;;5053175;28;20040;-74
2022/09/18 03:45:31;;;;;;;24.35;11.90;;;9.20;99.90;;;;;;5056442;28;20044;-73
2022/09/18 03:47:59;;;;;;;27.35;12.23;;;9.20;99.90;;;;;;5053165;28;20048;-74
2022/09/18 03:50:27;;;;;;;23.27;13.77;;;9.20;99.90;;;;;;5054429;28;20692;-74
2022/09/18 03:52:54;;;;;;;23.35;12.88;;;9.30;99.90;;;;;;5053987;28;20043;-73
2022/09/18 03:55:32;;;;;;;25.08;12.80;;;9.20;99.90;;;;;;5056226;28;20178;-74
2022/09/18 03:58:19;;;;;;;30.73;14.15;;;9.30;99.90;;;;;;5076632;28;20048;-73
2022/09/18 04:01:12;;;;;;;26.50;12.80;;;9.20;99.90;;;;;;5054521;28;20596;-75
2022/09/18 04:03:59;;;;;;;32.53;13.13;;;9.30;99.90;;;;;;5077720;28;20048;-73
2022/09/18 04:06:51;;;;;;;24.77;14.02;;;9.30;99.90;;;;;;5039596;28;20067;-73
2022/09/18 04:09:36;;;;;;;34.20;12.20;;;9.30;99.90;;;;;;5073860;28;20517;-74
2022/09/18 04:12:04;;;;;;;34.30;12.13;;;9.30;99.90;;;;;;5048849;28;20117;-74
2022/09/18 04:14:31;;;;;;;25.92;13.05;;;9.20;99.90;;;;;;5043249;28;20048;-73
2022/09/18 04:16:57;;;;;;;18.55;10.80;;;9.30;99.90;;;;;;5059065;28;20055;-74
2022/09/18 04:19:24;;;;;;;25.92;11.73;;;9.20;99.90;;;;;;5080049;28;20456;-76
2022/09/18 04:21:51;;;;;;;22.52;11.95;;;9.20;99.90;;;;;;5055021;28;20222;-73
2022/09/18 04:24:20;;;;;;;21.80;11.32;;;9.20;99.90;;;;;;5055473;28;20109;-75
2022/09/18 04:26:46;;;;;;;20.65;12.52;;;9.20;99.90;;;;;;5056449;28;20508;-74
2022/09/18 04:29:13;;;;;;;19.23;10.70;;;9.20;99.90;;;;;;5055324;28;20135;-74
2022/09/18 04:31:40;;;;;;;26.77;11.77;;;9.30;99.90;;;;;;5059119;28;20052;-74
2022/09/18 04:34:11;;;;;;;23.88;11.23;;;9.30;99.90;;;;;;5059725;28;20051;-71
2022/09/18 04:36:38;;;;;;;27.02;11.32;;;9.30;99.90;;;;;;5044082;28;20105;-76
2022/09/18 04:39:06;;;;;;;19.40;10.57;;;9.30;99.90;;;;;;5042302;28;20048;-76
2022/09/18 04:41:34;;;;;;;17.80;9.73;;;9.20;99.90;;;;;;5059626;28;20134;-73
2022/09/18 04:44:02;;;;;;;23.20;11.73;;;9.20;99.90;;;;;;5059372;28;20476;-75
2022/09/18 04:46:29;;;;;;;30.35;10.82;;;9.20;99.90;;;;;;5057610;28;20040;-76
2022/09/18 04:48:56;;;;;;;22.65;10.10;;;9.20;99.90;;;;;;5055685;28;20058;-74
2022/09/18 04:51:25;;;;;;;20.58;9.88;;;9.20;99.90;;;;;;5054305;28;20041;-73
2022/09/18 04:53:52;;;;;;;23.33;10.32;;;9.20;99.90;;;;;;5079851;28;20068;-71
2022/09/18 04:56:19;;;;;;;17.13;9.10;;;9.20;99.90;;;;;;5041489;28;20051;-73
2022/09/18 04:58:49;;;;;;;17.85;7.65;;;9.10;99.90;;;;;;5056981;28;20094;-72
2022/09/18 05:01:16;;;;;;;14.20;7.55;;;9.20;99.90;;;;;;5041479;28;20201;-71
2022/09/18 05:03:43;;;;;;;18.77;8.00;;;9.10;99.90;;;;;;5061036;28;20040;-73
2022/09/18 05:06:17;;;;;;;20.20;7.47;;;9.20;99.90;;;;;;5073353;28;20104;-73
2022/09/18 05:08:45;;;;;;;11.00;7.43;;;9.20;99.90;;;;;;5068329;28;20036;-71
2022/09/18 05:11:12;;;;;;;15.13;7.78;;;9.20;99.90;;;;;;5058087;28;20681;-72
2022/09/18 05:13:39;;;;;;;14.50;7.55;;;9.20;99.90;;;;;;5059402;28;20094;-73
2022/09/18 05:16:12;;;;;;;16.35;7.55;;;9.20;99.90;;;;;;5055772;28;20572;-75
2022/09/18 05:18:40;;;;;;;22.08;8.43;;;9.20;99.90;;;;;;5053382;28;20040;-73
2022/09/18 05:21:08;;;;;;;13.82;9.18;;;9.20;99.90;;;;;;5052823;28;20448;-72
2022/09/18 05:23:36;;;;;;;23.10;9.65;;;9.30;99.90;;;;;;5060309;28;20478;-72
2022/09/18 05:26:03;;;;;;;27.10;9.93;;;9.30;99.90;;;;;;5054265;28;20089;-72
2022/09/18 05:28:30;;;;;;;14.75;9.10;;;9.30;99.90;;;;;;5056444;28;20044;-73
2022/09/18 05:30:59;;;;;;;26.00;9.50;;;9.30;99.90;;;;;;5042441;28;20052;-72
2022/09/18 05:33:32;;;;;;;19.58;10.02;;;9.40;99.90;;;;;;5058526;28;20441;-72
2022/09/18 05:35:59;;;;;;;19.42;9.63;;;9.30;99.90;;;;;;5059521;28;20109;-72
2022/09/18 05:38:26;;;;;;;26.48;10.75;;;9.30;99.90;;;;;;5051774;28;20032;-76
2022/09/18 05:40:53;;;;;;;18.88;9.93;;;9.30;99.90;;;;;;5053185;28;20044;-73
2022/09/18 05:43:21;;;;;;;20.83;10.95;;;9.40;99.90;;;;;;5053940;28;20615;-74
2022/09/18 05:45:48;;;;;;;23.33;11.00;;;9.40;99.90;;;;;;5060068;28;20032;-73
2022/09/18 05:48:20;;;;;;;17.10;11.63;;;9.40;99.90;;;;;;5040576;28;20469;-72
2022/09/18 05:50:47;;;;;;;23.98;10.32;;;9.40;99.90;;;;;;5055237;28;20085;-72
2022/09/18 05:53:17;;;;;;;17.67;10.60;;;9.40;99.90;;;;;;5054985;28;20044;-75
2022/09/18 05:55:59;;;;;;;34.97;12.63;;;9.40;99.90;;;;;;5059221;28;20048;-74
2022/09/18 05:58:25;;;;;;;19.27;10.52;;;9.40;99.90;;;;;;5056519;28;20055;-76
2022/09/18 06:00:56;;;;;;;22.95;12.02;;;9.40;99.90;;;;;;5058413;28;20055;-72
2022/09/18 06:03:29;;;;;;;25.98;11.75;;;9.50;99.90;;;;;;5050137;28;20063;-72
2022/09/18 06:05:58;;;;;;;25.75;12.00;;;9.50;99.90;;;;;;5052470;28;20052;-73
2022/09/18 06:08:25;;;;;;;19.88;10.98;;;9.50;99.90;;;;;;5038777;28;20048;-72
2022/09/18 06:10:53;;;;;;;24.70;11.98;;;9.50;99.90;;;;;;5053942;28;20040;-72
2022/09/18 06:13:20;;;;;;;26.48;12.57;;;9.50;99.90;;;;;;5051556;28;20052;-72
2022/09/18 06:15:53;;;;;;;23.98;12.38;;;9.50;99.90;;;;;;5052636;28;20159;-72
2022/09/18 06:18:30;;;;;;;26.65;13.80;;;9.50;99.90;;;;;;5038990;28;20071;-73
2022/09/18 06:20:59;;;;;;;26.60;13.98;;;9.50;99.90;;;;;;5058041;28;20050;-74
2022/09/18 06:23:28;;;;;;;26.77;14.32;;;9.60;99.90;;;;;;5040438;28;20068;-73
2022/09/18 06:26:05;;;;;;;26.88;15.07;;;9.60;99.90;;;;;;5040957;28;20037;-72
2022/09/18 06:28:33;;;;;;;28.70;16.08;;;9.60;99.90;;;;;;5034184;28;20228;-74
2022/09/18 06:31:04;;;;;;;27.35;14.77;;;9.60;99.90;;;;;;5054767;28;20036;-74
2022/09/18 06:33:57;;;;;;;37.42;15.70;;;9.60;99.90;;;;;;5030376;28;20134;-74
2022/09/18 06:36:24;;;;;;;33.55;16.45;;;9.50;99.90;;;;;;5050470;28;20083;-75
2022/09/18 06:39:02;;;;;;;22.80;14.00;;;9.60;99.90;;;;;;5043867;28;20054;-76
2022/09/18 06:41:29;;;;;;;20.85;12.38;;;9.50;99.90;;;;;;5052120;28;20055;-75
2022/09/18 06:43:56;;;;;;;19.38;8.63;;;9.50;99.90;;;;;;5056038;28;20055;-74
2022/09/18 06:46:37;;;;;;;16.88;8.40;;;9.50;99.90;;;;;;5057746;28;20168;-75
2022/09/18 06:49:36;;;;;;;18.73;9.57;;;9.50;99.90;;;;;;5039560;28;20123;-74
2022/09/18 06:52:03;;;;;;;19.25;8.57;;;9.60;99.90;;;;;;5058353;28;20036;-72
2022/09/18 06:54:31;;;;;;;22.90;9.77;;;9.70;99.90;;;;;;5058300;28;20040;-73
2022/09/18 06:57:00;;;;;;;20.08;11.23;;;9.60;99.90;;;;;;5056606;28;20123;-72
2022/09/18 06:59:28;;;;;;;29.17;13.00;;;9.60;99.90;;;;;;5056200;28;20637;-72
2022/09/18 07:01:55;;;;;;;31.55;15.10;;;9.60;99.90;;;;;;5074501;28;20082;-74
2022/09/18 07:04:42;;;;;;;29.92;14.60;;;9.70;99.90;;;;;;5065506;28;20050;-76
2022/09/18 07:07:09;;;;;;;22.48;12.38;;;9.80;99.90;;;;;;5057949;28;20043;-75
2022/09/18 07:09:35;;;;;;;20.33;10.95;;;9.80;99.90;;;;;;5056523;28;20044;-75
2022/09/18 07:12:22;;;;;;;20.17;12.75;;;9.70;99.90;;;;;;5064560;28;20075;-73
2022/09/18 07:14:52;;;;;;;24.88;11.75;;;9.70;99.90;;;;;;5056512;28;20113;-73
2022/09/18 07:17:20;;;;;;;20.50;11.60;;;9.70;99.90;;;;;;5054486;28;20069;-73
2022/09/18 07:19:53;;;;;;;17.70;10.68;;;9.70;99.90;;;;;;5056994;28;20150;-72
2022/09/18 07:22:22;;;;;;;17.10;9.82;;;9.70;99.90;;;;;;5039310;28;20440;-72
2022/09/18 07:24:49;;;;;;;16.48;9.27;;;9.70;99.90;;;;;;5052914;28;20052;-74
2022/09/18 07:27:16;;;;;;;16.23;7.60;;;9.60;99.90;;;;;;5057526;28;20139;-74
2022/09/18 07:29:43;;;;;;;20.63;8.65;;;9.60;99.90;;;;;;5054838;28;20536;-75
2022/09/18 07:32:13;;;;;;;18.27;8.73;;;9.60;99.90;;;;;;5057149;28;20044;-75
2022/09/18 07:34:43;;;;;;;16.40;8.38;;;9.60;99.90;;;;;;5057507;28;20168;-73
2022/09/18 07:37:12;;;;;;;13.43;7.07;;;9.70;99.90;;;;;;5057813;28;20040;-72
2022/09/18 07:39:44;;;;;;;15.25;7.80;;;9.70;99.90;;;;;;5062683;28;20691;-75
2022/09/18 07:42:29;;;;;;;16.50;8.43;;;9.80;99.90;;;;;;5075841;22;20041;-70
2022/09/18 07:44:56;;;;;;;18.83;9.20;;;9.90;99.90;;;;;;5026017;28;20640;-72
2022/09/18 07:47:24;;;;;;;17.33;9.38;;;9.90;99.90;;;;;;5003974;28;20890;-71
2022/09/18 07:49:52;;;;;;;17.13;7.82;;;9.90;99.90;;;;;;5018429;28;20053;-74
2022/09/18 07:52:19;;;;;;;19.38;9.02;;;9.80;99.90;;;;;;5017352;28;20044;-73
2022/09/18 07:54:50;;;;;;;19.13;9.32;;;9.80;99.90;;;;;;5005477;28;20683;-73
2022/09/18 07:57:30;;;;;;;22.30;8.70;;;9.80;99.90;;;;;;5003860;28;20522;-72
2022/09/18 08:00:15;;;;;;;20.80;9.40;;;9.80;99.90;;;;;;5031523;28;20503;-72
2022/09/18 08:02:42;;;;;;;19.85;10.32;;;9.70;99.90;;;;;;5037000;28;20041;-73
2022/09/18 08:05:15;;;;;;;24.08;10.40;;;9.80;99.90;;;;;;5011913;28;20407;-72
2022/09/18 08:07:48;;;;;;;20.80;10.30;;;9.90;99.90;;;;;;5016397;28;20047;-72
2022/09/18 08:10:29;;;;;;;17.83;8.27;;;9.90;99.90;;;;;;5007868;28;20801;-72
2022/09/18 08:13:22;;;;;;;17.13;8.68;;;9.90;99.90;;;;;;4995982;28;20056;-71
2022/09/18 08:16:03;;;;;;;19.42;6.70;;;9.90;99.90;;;;;;5007523;28;20045;-71
2022/09/18 08:18:56;;;;;;;18.63;7.93;;;9.80;99.90;;;;;;5017789;28;20047;-72
2022/09/18 08:21:35;;;;;;;16.75;7.45;;;9.80;99.90;;;;;;5000115;28;20894;-72
2022/09/18 08:24:06;;;;;;;19.77;10.38;;;9.80;99.90;;;;;;4979888;28;20612;-73
2022/09/18 08:26:37;;;;;;;11.57;6.57;;;9.90;99.90;;;;;;5010914;28;20257;-74
2022/09/18 08:29:05;;;;;;;9.50;6.15;;;9.90;99.90;;;;;;4997631;28;20400;-73
2022/09/18 08:31:32;;;;;;;10.13;6.18;;;9.80;99.90;;;;;;5011680;28;20498;-74
2022/09/18 08:34:02;;;;;;;13.30;7.60;;;9.90;99.90;;;;;;5015563;28;20140;-73
2022/09/18 08:36:30;;;;;;;11.30;6.85;;;9.90;99.90;;;;;;4993746;28;20053;-74
2022/09/18 08:39:06;;;;;;;9.73;5.32;;;9.90;99.90;;;;;;5007954;28;20077;-72
2022/09/18 08:42:15;;;;;;;13.35;6.30;;;9.90;99.90;;;;;;5004934;28;20140;-72
2022/09/18 08:44:53;;;;;;;11.32;5.50;;;9.90;99.90;;;;;;5017727;28;20037;-72
2022/09/18 08:47:31;;;;;;;10.68;7.75;;;9.90;99.90;;;;;;4999395;28;20548;-72
2022/09/18 08:50:15;;;;;;;10.68;5.72;;;10.00;99.90;;;;;;4998905;28;20431;-72
2022/09/18 08:52:47;;;;;;;13.02;6.38;;;10.10;99.90;;;;;;5015376;28;20637;-72
2022/09/18 08:55:32;;;;;;;10.50;5.30;;;10.20;99.90;;;;;;4997607;28;20519;-72
2022/09/18 08:58:47;;;;;;;12.93;6.40;;;10.10;99.90;;;;;;5012710;28;20045;-73
2022/09/18 09:01:18;;;;;;;7.57;5.70;;;10.10;99.90;;;;;;4999973;28;20051;-73
2022/09/18 09:04:12;;;;;;;7.20;6.00;;;10.10;99.90;;;;;;5004789;28;20047;-73
2022/09/18 09:07:01;;;;;;;12.27;6.72;;;10.00;99.90;;;;;;5011634;28;20274;-73
2022/09/18 09:09:36;;;;;;;16.48;8.13;;;10.10;99.90;;;;;;5020487;28;20131;-73
2022/09/18 09:12:12;;;;;;;11.43;7.18;;;10.00;99.90;;;;;;5018499;28;20127;-73
2022/09/18 09:14:45;;;;;;;12.43;7.40;;;10.00;99.90;;;;;;5017760;28;20515;-74
2022/09/18 09:17:36;;;;;;;12.30;6.57;;;10.00;99.90;;;;;;5013884;28;20055;-73
2022/09/18 09:20:15;;;;;;;12.25;8.57;;;9.90;99.90;;;;;;5014367;28;20045;-73
2022/09/18 09:23:04;;;;;;;11.95;6.90;;;10.00;99.90;;;;;;5015967;28;20126;-76
2022/09/18 09:25:58;;;;;;;9.30;7.07;;;10.00;99.90;;;;;;5009076;28;20128;-72
2022/09/18 09:28:45;;;;;;;15.57;7.65;;;9.90;99.90;;;;;;5013407;28;20106;-74
2022/09/18 09:31:39;;;;;;;20.88;10.45;;;9.90;99.90;;;;;;5010681;28;20112;-75
2022/09/18 09:34:30;;;;;;;15.52;10.20;;;10.00;99.90;;;;;;5007422;28;20076;-74
2022/09/18 09:37:11;;;;;;;13.20;9.68;;;10.00;99.90;;;;;;5029482;28;20148;-74
2022/09/18 09:39:45;;;;;;;15.35;9.55;;;9.90;99.90;;;;;;5018748;28;20057;-74
2022/09/18 09:42:26;;;;;;;21.10;11.75;;;9.90;99.90;;;;;;5007443;28;20050;-75
2022/09/18 09:45:08;;;;;;;14.75;9.43;;;9.90;99.90;;;;;;5003891;28;20048;-76
2022/09/18 09:47:51;;;;;;;14.05;8.57;;;9.80;99.90;;;;;;4998454;28;20326;-75
2022/09/18 09:50:39;;;;;;;12.45;4.45;;;9.80;99.90;;;;;;5014757;28;20048;-71
2022/09/18 09:53:10;;;;;;;7.15;3.72;;;9.50;99.90;;;;;;5013020;28;20619;-73
2022/09/18 09:55:55;;;;;;;10.90;5.15;;;9.40;99.90;;;;;;5007163;28;20045;-73
2022/09/18 09:58:38;;;;;;;10.45;4.95;;;9.30;99.90;;;;;;5010152;28;20052;-74
2022/09/18 10:01:10;;;;;;;11.13;4.78;;;9.40;99.90;;;;;;5011749;28;20044;-74
2022/09/18 10:04:09;;;;;;;8.32;4.55;;;9.50;99.90;;;;;;4997479;28;20125;-73
2022/09/18 10:06:43;;;;;;;13.95;6.10;;;9.50;99.90;;;;;;5013290;28;20610;-74
2022/09/18 10:09:17;;;;;;;10.30;5.40;;;9.70;99.90;;;;;;5014296;28;20045;-74
2022/09/18 10:11:56;;;;;;;8.15;5.15;;;9.80;99.90;;;;;;5009912;28;20464;-74
2022/09/18 10:14:28;;;;;;;9.15;5.13;;;9.80;99.90;;;;;;5007509;28;21718;-73
2022/09/18 10:16:56;;;;;;;13.10;4.97;;;9.80;99.90;;;;;;5011633;28;20494;-74
2022/09/18 10:19:33;;;;;;;8.90;4.65;;;9.70;99.90;;;;;;5002455;28;20065;-75
2022/09/18 10:22:04;;;;;;;9.48;5.70;;;9.80;99.90;;;;;;5013406;28;20053;-75
2022/09/18 10:24:59;;;;;;;9.93;5.15;;;9.60;99.90;;;;;;5009753;28;20576;-75
2022/09/18 10:27:26;;;;;;;6.43;4.05;;;9.60;99.90;;;;;;4998719;28;20041;-74
2022/09/18 10:29:53;;;;;;;7.80;3.92;;;9.60;99.90;;;;;;5016873;28;20049;-75
2022/09/18 10:32:32;;;;;;;10.65;4.53;;;9.60;99.90;;;;;;5014382;28;20045;-76
2022/09/18 10:35:31;;;;;;;6.15;4.80;;;9.50;99.90;;;;;;5009340;28;20721;-72
2022/09/18 10:37:58;;;;;;;7.85;4.93;;;9.50;99.90;;;;;;5001206;28;20072;-74
2022/09/18 10:40:38;;;;;;;5.57;3.65;;;9.50;99.90;;;;;;5010451;28;20432;-74
2022/09/18 10:43:17;;;;;;;8.63;4.43;;;9.30;99.90;;;;;;5013659;28;20102;-75
2022/09/18 10:45:53;;;;;;;8.35;4.25;;;9.30;99.90;;;;;;5017009;28;20551;-73
2022/09/18 10:48:26;;;;;;;11.75;3.67;;;9.30;99.90;;;;;;5015205;28;20045;-75
2022/09/18 10:50:59;;;;;;;4.05;3.40;;;9.40;99.90;;;;;;5017893;28;20040;-76
2022/09/18 10:53:34;;;;;;;6.05;2.97;;;9.30;99.90;;;;;;5015085;28;20045;-75
2022/09/18 10:56:23;;;;;;;9.65;3.45;;;9.40;99.90;;;;;;5014921;28;20144;-74
2022/09/18 10:58:53;;;;;;;6.22;2.70;;;9.50;99.90;;;;;;5000866;28;20630;-73
2022/09/18 11:01:23;;;;;;;6.93;3.17;;;9.30;99.90;;;;;;4998980;28;20053;-74
2022/09/18 11:04:01;;;;;;;3.60;2.38;;;9.30;99.90;;;;;;5003997;28;20098;-73
2022/09/18 11:06:33;;;;;;;4.05;2.10;;;9.30;99.90;;;;;;4995070;28;20197;-73
2022/09/18 11:09:17;;;;;;;6.43;2.47;;;9.30;99.90;;;;;;5012672;28;20049;-73
2022/09/18 11:11:50;;;;;;;7.28;2.63;;;9.40;99.90;;;;;;5022447;28;20542;-73
2022/09/18 11:14:43;;;;;;;6.63;3.00;;;9.40;99.90;;;;;;5010161;28;20072;-73
2022/09/18 11:17:31;;;;;;;;;;;9.50;99.90;;;;;;5012472;28;20484;-74
2022/09/18 11:20:03;;;;;;;7.68;3.00;;;9.50;99.90;;;;;;5022725;28;19929;-74
2022/09/18 11:22:42;;;;;;;4.72;2.63;;;9.50;99.90;;;;;;5007966;28;20052;-75
2022/09/18 11:25:29;;;;;;;4.13;3.67;;;9.50;99.90;;;;;;5026360;28;20123;-76
2022/09/18 11:28:19;;;;;;;6.75;3.72;;;9.40;99.90;;;;;;5010502;28;20119;-75
2022/09/18 11:30:57;;;;;;;5.45;3.03;;;9.40;99.90;;;;;;5005590;28;20482;-75
2022/09/18 11:33:28;;;;;;;7.25;3.63;;;9.50;99.90;;;;;;5016090;28;20057;-74
2022/09/18 11:36:12;;;;;;;3.92;3.53;;;9.40;99.90;;;;;;5013345;28;20048;-75
2022/09/18 11:38:44;;;;;;;5.88;3.70;;;9.50;99.90;;;;;;5004365;28;20519;-77
2022/09/18 11:41:20;;;;;;;4.13;3.67;;;9.40;99.90;;;;;;5032221;28;20056;-74
2022/09/18 11:44:01;;;;;;;5.80;3.35;;;9.40;99.90;;;;;;5013995;28;20068;-76
2022/09/18 11:47:06;;;;;;;5.07;3.22;;;9.40;99.90;;;;;;5011350;28;20042;-74
2022/09/18 11:49:38;;;;;;;4.95;3.88;;;9.40;99.90;;;;;;4995462;28;20041;-75
2022/09/18 11:52:26;;;;;;;9.30;3.80;;;9.30;99.90;;;;;;5016415;28;20044;-74
2022/09/18 11:55:08;;;;;;;7.03;4.35;;;9.40;99.90;;;;;;5033392;28;20040;-74
2022/09/18 11:57:39;;;;;;;9.00;5.45;;;9.40;99.90;;;;;;5015980;28;20135;-74
2022/09/18 12:00:16;;;;;;;8.85;4.88;;;9.30;99.90;;;;;;5015056;28;20045;-76
2022/09/18 12:02:46;;;;;;;13.85;5.10;;;9.40;99.90;;;;;;5012501;28;20045;-75
2022/09/18 12:05:19;;;;;;;10.38;5.97;;;9.50;99.90;;;;;;5014704;28;20441;-75
2022/09/18 12:07:52;;;;;;;4.18;3.78;;;9.40;99.90;;;;;;4999689;28;20080;-74
2022/09/18 12:10:28;;;;;;;6.15;3.97;;;9.40;99.90;;;;;;5009995;28;20053;-75
2022/09/18 12:13:24;;;;;;;8.95;4.65;;;9.40;99.90;;;;;;5003060;28;20041;-75
2022/09/18 12:16:26;;;;;;;9.63;4.82;;;9.40;99.90;;;;;;5015286;28;20514;-75
2022/09/18 12:19:07;;;;;;;9.35;4.90;;;9.40;99.90;;;;;;5014524;28;20049;-75
2022/09/18 12:22:08;;;;;;;6.70;4.80;;;9.50;99.90;;;;;;5018143;28;20140;-74
2022/09/18 12:24:36;;;;;;;5.10;2.63;;;9.60;99.90;;;;;;5033953;28;20136;-75
2022/09/18 12:27:20;;;;;;;6.07;3.70;;;9.50;99.90;;;;;;5003531;28;20722;-74
2022/09/18 12:30:10;;;;;;;9.05;3.13;;;9.40;99.90;;;;;;5013264;28;20469;-75
2022/09/18 12:32:49;;;;;;;10.32;3.78;;;9.50;99.90;;;;;;5012617;28;20064;-74
2022/09/18 12:35:38;;;;;;;5.55;4.03;;;9.50;99.90;;;;;;5035116;28;20682;-73
2022/09/18 12:38:24;;;;;;;4.57;3.28;;;9.50;99.90;;;;;;5017639;28;20056;-75
2022/09/18 12:41:09;;;;;;;6.50;3.40;;;9.40;99.90;;;;;;5036896;28;20110;-75
2022/09/18 12:43:58;;;;;;;;;;;9.50;99.90;;;;;;5029794;28;20041;-76
2022/09/18 12:46:40;;;;;;;4.65;3.75;;;9.60;99.90;;;;;;5034164;28;19948;-74
2022/09/18 12:49:37;;;;;;;7.20;4.03;;;9.50;99.90;;;;;;5035521;28;20043;-74
2022/09/18 12:52:27;;;;;;;4.22;3.47;;;9.50;99.90;;;;;;5020713;28;20049;-74
2022/09/18 12:55:12;;;;;;;4.85;2.80;;;9.40;99.90;;;;;;5017870;28;20057;-73
2022/09/18 12:58:17;;;;;;;9.25;3.85;;;9.40;99.90;;;;;;5033167;28;20049;-75
2022/09/18 13:00:48;;;;;;;5.75;3.70;;;9.40;99.90;;;;;;5014114;28;20048;-75
2022/09/18 13:03:22;;;;;;;1.67;1.10;;;9.40;99.90;;;;;;5033021;28;20414;-73
2022/09/18 13:05:57;;;;;;;2.00;1.45;;;9.20;99.90;;;;;;5017170;28;20525;-74
2022/09/18 13:08:46;;;;;;;3.28;1.70;;;9.00;99.90;;;;;;5033590;28;20047;-74
2022/09/18 13:11:40;;;;;;;3.20;2.67;;;9.00;99.90;;;;;;4990544;28;20396;-74
2022/09/18 13:14:32;;;;;;;6.80;2.72;;;9.00;99.90;;;;;;5013333;28;20148;-76
2022/09/18 13:17:21;;;;;;;2.40;2.20;;;9.10;99.90;;;;;;5015566;28;20037;-76
2022/09/18 13:19:56;;;;;;;6.57;2.42;;;9.10;99.90;;;;;;5018606;28;20525;-74
2022/09/18 13:22:28;;;;;;;2.00;1.80;;;9.10;99.90;;;;;;5016634;28;20055;-74
2022/09/18 13:24:56;;;;;;;3.13;2.35;;;9.20;99.90;;;;;;5037708;28;20045;-74
2022/09/18 13:27:24;;;;;;;14.82;8.40;;;9.10;99.90;;;;;;5030293;28;20615;-74
2022/09/18 13:29:51;;;;;;;3.67;2.53;;;9.00;99.90;;;;;;5012633;28;20047;-73
2022/09/18 13:32:30;;;;;;;3.25;2.20;;;9.00;99.90;;;;;;5010387;28;20083;-72